sensor_id;sensor_type;location;lat;lon;timestamp;pressure;altitude;pressure_sealevel;temperature;humidity
53546;BME280;39432;51.902;10.844;2023-02-17T00:01:10;99801.53;;;9.57;100.00
53546;BME280;39432;51.902;10.844;2023-02-17T00:03:40;99805.09;;;9.58;100.00
53546;BME280;39432;51.902;10.844;2023-02-17T00:06:15;99801.44;;;9.52;100.00
53546;BME280;39432;51.902;10.844;2023-02-17T00:08:46;99800.09;;;9.55;100.00
53546;BME280;39432;51.902;10.844;2023-02-17T00:11:19;99788.34;;;9.54;100.00
53546;BME280;39432;51.902;10.844;2023-02-17T00:13:50;99775.19;;;9.51;100.00
53546;BME280;39432;51.902;10.844;2023-02-17T00:16:23;99772.56;;;9.56;100.00
53546;BME280;39432;51.902;10.844;2023-02-17T00:18:54;99760.72;;;9.50;100.00
53546;BME280;39432;51.902;10.844;2023-02-17T00:21:27;99770.78;;;9.50;100.00
53546;BME280;39432;51.902;10.844;2023-02-17T00:24:00;99752.44;;;9.62;100.00
53546;BME280;39432;51.902;10.844;2023-02-17T00:26:32;99755.19;;;9.62;100.00
53546;BME280;39432;51.902;10.844;2023-02-17T00:29:01;99750.13;;;9.54;100.00
53546;BME280;39432;51.902;10.844;2023-02-17T00:31:31;99758.72;;;9.46;100.00
53546;BME280;39432;51.902;10.844;2023-02-17T00:34:01;99751.09;;;9.48;100.00
53546;BME280;39432;51.902;10.844;2023-02-17T00:36:30;99751.38;;;9.46;100.00
53546;BME280;39432;51.902;10.844;2023-02-17T00:39:00;99743.41;;;9.45;100.00
53546;BME280;39432;51.902;10.844;2023-02-17T00:41:33;99742.56;;;9.44;100.00
53546;BME280;39432;51.902;10.844;2023-02-17T00:44:03;99744.25;;;9.45;100.00
53546;BME280;39432;51.902;10.844;2023-02-17T00:46:32;99739.00;;;9.44;100.00
53546;BME280;39432;51.902;10.844;2023-02-17T00:49:03;99754.09;;;9.46;100.00
53546;BME280;39432;51.902;10.844;2023-02-17T00:51:33;99755.47;;;9.49;100.00
53546;BME280;39432;51.902;10.844;2023-02-17T00:54:04;99751.00;;;9.43;100.00
53546;BME280;39432;51.902;10.844;2023-02-17T00:56:36;99745.63;;;9.48;100.00
53546;BME280;39432;51.902;10.844;2023-02-17T00:59:06;99746.97;;;9.45;100.00
53546;BME280;39432;51.902;10.844;2023-02-17T01:01:37;99756.09;;;9.51;100.00
53546;BME280;39432;51.902;10.844;2023-02-17T01:04:08;99747.38;;;9.54;100.00
53546;BME280;39432;51.902;10.844;2023-02-17T01:06:39;99756.41;;;9.55;100.00
53546;BME280;39432;51.902;10.844;2023-02-17T01:09:12;99763.00;;;9.42;100.00
53546;BME280;39432;51.902;10.844;2023-02-17T01:11:45;99768.56;;;9.47;100.00
53546;BME280;39432;51.902;10.844;2023-02-17T01:14:14;99765.59;;;9.48;100.00
53546;BME280;39432;51.902;10.844;2023-02-17T01:16:47;99759.38;;;9.53;100.00
53546;BME280;39432;51.902;10.844;2023-02-17T01:19:18;99756.56;;;9.48;100.00
53546;BME280;39432;51.902;10.844;2023-02-17T01:21:47;99756.41;;;9.55;100.00
53546;BME280;39432;51.902;10.844;2023-02-17T01:24:17;99741.91;;;9.54;100.00
53546;BME280;39432;51.902;10.844;2023-02-17T01:26:49;99750.75;;;9.44;100.00
53546;BME280;39432;51.902;10.844;2023-02-17T01:29:19;99739.69;;;9.51;100.00
53546;BME280;39432;51.902;10.844;2023-02-17T01:31:48;99744.00;;;9.47;100.00
53546;BME280;39432;51.902;10.844;2023-02-17T01:34:18;99728.59;;;9.41;100.00
53546;BME280;39432;51.902;10.844;2023-02-17T01:36:48;99739.53;;;9.41;100.00
53546;BME280;39432;51.902;10.844;2023-02-17T01:39:17;99732.88;;;9.37;100.00
53546;BME280;39432;51.902;10.844;2023-02-17T01:41:50;99735.06;;;9.35;100.00
53546;BME280;39432;51.902;10.844;2023-02-17T01:44:20;99734.22;;;9.34;100.00
53546;BME280;39432;51.902;10.844;2023-02-17T01:46:54;99736.09;;;9.34;100.00
53546;BME280;39432;51.902;10.844;2023-02-17T01:49:29;99720.78;;;9.33;100.00
53546;BME280;39432;51.902;10.844;2023-02-17T01:52:06;99730.41;;;9.35;100.00
53546;BME280;39432;51.902;10.844;2023-02-17T01:54:40;99722.44;;;9.34;100.00
53546;BME280;39432;51.902;10.844;2023-02-17T01:57:15;99721.41;;;9.35;100.00
53546;BME280;39432;51.902;10.844;2023-02-17T01:59:46;99718.06;;;9.33;100.00
53546;BME280;39432;51.902;10.844;2023-02-17T02:02:17;99717.16;;;9.27;100.00
53546;BME280;39432;51.902;10.844;2023-02-17T02:04:49;99715.34;;;9.33;100.00
53546;BME280;39432;51.902;10.844;2023-02-17T02:07:22;99720.72;;;9.28;100.00
53546;BME280;39432;51.902;10.844;2023-02-17T02:09:56;99720.13;;;9.26;100.00
53546;BME280;39432;51.902;10.844;2023-02-17T02:12:32;99719.66;;;9.29;100.00
53546;BME280;39432;51.902;10.844;2023-02-17T02:15:06;99709.22;;;9.26;100.00
53546;BME280;39432;51.902;10.844;2023-02-17T02:17:42;99700.78;;;9.27;100.00
53546;BME280;39432;51.902;10.844;2023-02-17T02:20:29;99693.31;;;9.22;100.00
53546;BME280;39432;51.902;10.844;2023-02-17T02:23:14;99688.63;;;9.35;100.00
53546;BME280;39432;51.902;10.844;2023-02-17T02:26:13;99686.72;;;9.35;100.00
53546;BME280;39432;51.902;10.844;2023-02-17T02:29:12;99676.63;;;9.36;100.00
53546;BME280;39432;51.902;10.844;2023-02-17T02:31:55;99676.72;;;9.41;100.00
53546;BME280;39432;51.902;10.844;2023-02-17T02:34:37;99676.72;;;9.41;100.00
53546;BME280;39432;51.902;10.844;2023-02-17T02:37:13;99663.72;;;9.48;100.00
53546;BME280;39432;51.902;10.844;2023-02-17T02:39:47;99664.22;;;9.45;100.00
53546;BME280;39432;51.902;10.844;2023-02-17T02:42:21;99663.63;;;9.43;100.00
53546;BME280;39432;51.902;10.844;2023-02-17T02:44:52;99663.72;;;9.48;100.00
53546;BME280;39432;51.902;10.844;2023-02-17T02:47:49;99653.94;;;9.52;100.00
53546;BME280;39432;51.902;10.844;2023-02-17T02:50:34;99652.63;;;9.38;100.00
53546;BME280;39432;51.902;10.844;2023-02-17T02:53:23;99650.81;;;9.43;100.00
53546;BME280;39432;51.902;10.844;2023-02-17T02:56:03;99658.16;;;9.43;100.00
53546;BME280;39432;51.902;10.844;2023-02-17T02:58:37;99656.25;;;9.43;100.00
53546;BME280;39432;51.902;10.844;2023-02-17T03:01:20;99651.47;;;9.50;100.00
53546;BME280;39432;51.902;10.844;2023-02-17T03:04:03;99647.88;;;9.50;100.00
53546;BME280;39432;51.902;10.844;2023-02-17T03:06:42;99643.78;;;9.47;100.00
53546;BME280;39432;51.902;10.844;2023-02-17T03:09:16;99642.13;;;9.46;100.00
53546;BME280;39432;51.902;10.844;2023-02-17T03:11:48;99639.22;;;9.53;100.00
53546;BME280;39432;51.902;10.844;2023-02-17T03:14:20;99625.81;;;9.52;100.00
53546;BME280;39432;51.902;10.844;2023-02-17T03:16:51;99633.66;;;9.48;100.00
53546;BME280;39432;51.902;10.844;2023-02-17T03:19:23;99638.72;;;9.56;100.00
53546;BME280;39432;51.902;10.844;2023-02-17T03:21:58;99633.25;;;9.56;100.00
53546;BME280;39432;51.902;10.844;2023-02-17T03:24:31;99624.56;;;9.59;100.00
53546;BME280;39432;51.902;10.844;2023-02-17T03:27:01;99621.34;;;9.62;100.00
53546;BME280;39432;51.902;10.844;2023-02-17T03:29:31;99622.47;;;9.66;100.00
53546;BME280;39432;51.902;10.844;2023-02-17T03:32:01;99618.59;;;9.62;100.00
53546;BME280;39432;51.902;10.844;2023-02-17T03:34:31;99619.66;;;9.61;100.00
53546;BME280;39432;51.902;10.844;2023-02-17T03:37:04;99617.50;;;9.63;100.00
53546;BME280;39432;51.902;10.844;2023-02-17T03:39:33;99612.34;;;9.67;100.00
53546;BME280;39432;51.902;10.844;2023-02-17T03:42:03;99610.47;;;9.67;100.00
53546;BME280;39432;51.902;10.844;2023-02-17T03:44:33;99608.25;;;9.64;100.00
53546;BME280;39432;51.902;10.844;2023-02-17T03:47:02;99603.25;;;9.61;100.00
53546;BME280;39432;51.902;10.844;2023-02-17T03:49:32;99602.28;;;9.67;100.00
53546;BME280;39432;51.902;10.844;2023-02-17T03:52:04;99609.06;;;9.65;100.00
53546;BME280;39432;51.902;10.844;2023-02-17T03:54:34;99606.31;;;9.65;100.00
53546;BME280;39432;51.902;10.844;2023-02-17T03:57:04;99599.56;;;9.67;100.00
53546;BME280;39432;51.902;10.844;2023-02-17T03:59:34;99598.97;;;9.65;100.00
53546;BME280;39432;51.902;10.844;2023-02-17T04:02:04;99594.84;;;9.63;100.00
53546;BME280;39432;51.902;10.844;2023-02-17T04:04:33;99589.13;;;9.64;100.00
53546;BME280;39432;51.902;10.844;2023-02-17T04:07:07;99582.84;;;9.64;100.00
53546;BME280;39432;51.902;10.844;2023-02-17T04:09:37;99583.09;;;9.62;100.00
53546;BME280;39432;51.902;10.844;2023-02-17T04:12:06;99574.81;;;9.57;100.00
53546;BME280;39432;51.902;10.844;2023-02-17T04:14:36;99581.41;;;9.61;100.00
53546;BME280;39432;51.902;10.844;2023-02-17T04:17:06;99574.91;;;9.62;100.00
53546;BME280;39432;51.902;10.844;2023-02-17T04:19:35;99574.44;;;9.70;100.00
53546;BME280;39432;51.902;10.844;2023-02-17T04:22:07;99573.81;;;9.63;100.00
53546;BME280;39432;51.902;10.844;2023-02-17T04:24:37;99578.25;;;9.69;100.00
53546;BME280;39432;51.902;10.844;2023-02-17T04:27:07;99586.88;;;9.78;100.00
53546;BME280;39432;51.902;10.844;2023-02-17T04:29:37;99579.91;;;9.70;100.00
53546;BME280;39432;51.902;10.844;2023-02-17T04:32:06;99585.69;;;9.74;100.00
53546;BME280;39432;51.902;10.844;2023-02-17T04:34:36;99574.50;;;9.75;100.00
53546;BME280;39432;51.902;10.844;2023-02-17T04:37:08;99575.06;;;9.77;100.00
53546;BME280;39432;51.902;10.844;2023-02-17T04:39:38;99563.72;;;9.86;100.00
53546;BME280;39432;51.902;10.844;2023-02-17T04:42:08;99570.28;;;9.85;100.00
53546;BME280;39432;51.902;10.844;2023-02-17T04:44:37;99571.28;;;9.79;100.00
53546;BME280;39432;51.902;10.844;2023-02-17T04:47:07;99566.94;;;9.83;100.00
53546;BME280;39432;51.902;10.844;2023-02-17T04:49:37;99567.59;;;9.90;100.00
53546;BME280;39432;51.902;10.844;2023-02-17T04:52:09;99564.47;;;9.81;100.00
53546;BME280;39432;51.902;10.844;2023-02-17T04:54:38;99568.44;;;9.90;100.00
53546;BME280;39432;51.902;10.844;2023-02-17T04:57:08;99582.84;;;9.86;100.00
53546;BME280;39432;51.902;10.844;2023-02-17T04:59:38;99567.84;;;9.88;100.00
53546;BME280;39432;51.902;10.844;2023-02-17T05:02:07;99573.06;;;9.90;100.00
53546;BME280;39432;51.902;10.844;2023-02-17T05:04:37;99577.88;;;9.83;100.00
53546;BME280;39432;51.902;10.844;2023-02-17T05:07:09;99574.09;;;9.84;100.00
53546;BME280;39432;51.902;10.844;2023-02-17T05:09:38;99572.41;;;9.83;100.00
53546;BME280;39432;51.902;10.844;2023-02-17T05:12:08;99561.00;;;9.86;100.00
53546;BME280;39432;51.902;10.844;2023-02-17T05:14:38;99567.00;;;9.88;100.00
53546;BME280;39432;51.902;10.844;2023-02-17T05:17:08;99573.22;;;9.83;100.00
53546;BME280;39432;51.902;10.844;2023-02-17T05:19:37;99558.25;;;9.86;100.00
53546;BME280;39432;51.902;10.844;2023-02-17T05:22:09;99562.06;;;9.85;100.00
53546;BME280;39432;51.902;10.844;2023-02-17T05:24:39;99578.69;;;9.83;100.00
53546;BME280;39432;51.902;10.844;2023-02-17T05:27:09;99565.81;;;9.79;100.00
53546;BME280;39432;51.902;10.844;2023-02-17T05:29:38;99569.59;;;9.77;100.00
53546;BME280;39432;51.902;10.844;2023-02-17T05:32:08;99561.00;;;9.86;100.00
53546;BME280;39432;51.902;10.844;2023-02-17T05:34:38;99557.78;;;9.94;100.00
53546;BME280;39432;51.902;10.844;2023-02-17T05:37:10;99557.78;;;9.94;100.00
53546;BME280;39432;51.902;10.844;2023-02-17T05:39:40;99555.66;;;9.96;100.00
53546;BME280;39432;51.902;10.844;2023-02-17T05:42:10;99541.94;;;9.91;100.00
53546;BME280;39432;51.902;10.844;2023-02-17T05:44:39;99557.78;;;9.94;100.00
53546;BME280;39432;51.902;10.844;2023-02-17T05:47:09;99544.72;;;9.96;100.00
53546;BME280;39432;51.902;10.844;2023-02-17T05:49:39;99552.47;;;10.04;100.00
53546;BME280;39432;51.902;10.844;2023-02-17T05:52:11;99544.84;;;10.06;100.00
53546;BME280;39432;51.902;10.844;2023-02-17T05:54:42;99543.81;;;10.12;100.00
53546;BME280;39432;51.902;10.844;2023-02-17T05:57:12;99522.97;;;10.06;100.00
53546;BME280;39432;51.902;10.844;2023-02-17T05:59:41;99532.75;;;10.02;100.00
53546;BME280;39432;51.902;10.844;2023-02-17T06:02:11;99522.44;;;10.09;100.00
53546;BME280;39432;51.902;10.844;2023-02-17T06:04:40;99517.31;;;10.13;100.00
53546;BME280;39432;51.902;10.844;2023-02-17T06:07:13;99511.63;;;10.19;100.00
53546;BME280;39432;51.902;10.844;2023-02-17T06:09:42;99507.19;;;10.13;100.00
53546;BME280;39432;51.902;10.844;2023-02-17T06:12:14;99490.94;;;10.23;100.00
53546;BME280;39432;51.902;10.844;2023-02-17T06:14:43;99496.19;;;10.30;100.00
53546;BME280;39432;51.902;10.844;2023-02-17T06:17:13;99502.75;;;10.29;100.00
53546;BME280;39432;51.902;10.844;2023-02-17T06:19:43;99490.97;;;10.28;100.00
53546;BME280;39432;51.902;10.844;2023-02-17T06:22:15;99493.13;;;10.26;100.00
53546;BME280;39432;51.902;10.844;2023-02-17T06:24:45;99497.53;;;10.27;100.00
53546;BME280;39432;51.902;10.844;2023-02-17T06:27:15;99498.38;;;10.28;100.00
53546;BME280;39432;51.902;10.844;2023-02-17T06:29:44;99492.75;;;10.18;100.00
53546;BME280;39432;51.902;10.844;2023-02-17T06:32:14;99481.06;;;10.22;100.00
53546;BME280;39432;51.902;10.844;2023-02-17T06:34:43;99499.53;;;10.15;100.00
53546;BME280;39432;51.902;10.844;2023-02-17T06:37:16;99493.03;;;10.21;100.00
53546;BME280;39432;51.902;10.844;2023-02-17T06:39:45;99492.22;;;10.21;100.00
53546;BME280;39432;51.902;10.844;2023-02-17T06:42:15;99480.91;;;10.34;100.00
53546;BME280;39432;51.902;10.844;2023-02-17T06:44:44;99478.22;;;10.39;100.00
53546;BME280;39432;51.902;10.844;2023-02-17T06:47:14;99483.34;;;10.31;100.00
53546;BME280;39432;51.902;10.844;2023-02-17T06:49:44;99475.13;;;10.31;100.00
53546;BME280;39432;51.902;10.844;2023-02-17T06:52:16;99469.66;;;10.31;100.00
53546;BME280;39432;51.902;10.844;2023-02-17T06:54:45;99480.09;;;10.34;100.00
53546;BME280;39432;51.902;10.844;2023-02-17T06:57:16;99470.59;;;10.41;100.00
53546;BME280;39432;51.902;10.844;2023-02-17T06:59:46;99492.34;;;10.58;100.00
53546;BME280;39432;51.902;10.844;2023-02-17T07:02:15;99486.25;;;10.51;100.00
53546;BME280;39432;51.902;10.844;2023-02-17T07:04:45;99490.09;;;10.50;100.00
53546;BME280;39432;51.902;10.844;2023-02-17T07:07:17;99488.91;;;10.41;100.00
53546;BME280;39432;51.902;10.844;2023-02-17T07:09:47;99480.78;;;10.51;100.00
53546;BME280;39432;51.902;10.844;2023-02-17T07:12:17;99474.78;;;10.54;100.00
53546;BME280;39432;51.902;10.844;2023-02-17T07:14:46;99478.19;;;10.66;100.00
53546;BME280;39432;51.902;10.844;2023-02-17T07:17:16;99474.84;;;10.59;100.00
53546;BME280;39432;51.902;10.844;2023-02-17T07:19:45;99466.66;;;10.64;100.00
53546;BME280;39432;51.902;10.844;2023-02-17T07:22:18;99464.13;;;10.90;100.00
53546;BME280;39432;51.902;10.844;2023-02-17T07:24:47;99461.31;;;10.79;100.00
53546;BME280;39432;51.902;10.844;2023-02-17T07:27:17;99464.59;;;10.81;100.00
53546;BME280;39432;51.902;10.844;2023-02-17T07:29:46;99451.94;;;10.70;100.00
53546;BME280;39432;51.902;10.844;2023-02-17T07:32:16;99456.97;;;10.84;100.00
53546;BME280;39432;51.902;10.844;2023-02-17T07:34:46;99445.94;;;10.73;100.00
53546;BME280;39432;51.902;10.844;2023-02-17T07:37:18;99428.47;;;10.79;100.00
53546;BME280;39432;51.902;10.844;2023-02-17T07:39:48;99438.38;;;10.86;100.00
53546;BME280;39432;51.902;10.844;2023-02-17T07:42:18;99436.19;;;10.88;100.00
53546;BME280;39432;51.902;10.844;2023-02-17T07:44:48;99411.63;;;11.03;100.00
53546;BME280;39432;51.902;10.844;2023-02-17T07:47:18;99407.78;;;10.94;100.00
53546;BME280;39432;51.902;10.844;2023-02-17T07:49:47;99399.63;;;11.09;100.00
53546;BME280;39432;51.902;10.844;2023-02-17T07:52:19;99399.88;;;11.02;100.00
53546;BME280;39432;51.902;10.844;2023-02-17T07:54:49;99406.16;;;11.03;100.00
53546;BME280;39432;51.902;10.844;2023-02-17T07:57:19;99411.41;;;11.09;100.00
53546;BME280;39432;51.902;10.844;2023-02-17T07:59:48;99425.69;;;11.17;100.00
53546;BME280;39432;51.902;10.844;2023-02-17T08:02:18;99429.78;;;11.14;100.00
53546;BME280;39432;51.902;10.844;2023-02-17T08:04:50;99422.13;;;11.16;100.00
53546;BME280;39432;51.902;10.844;2023-02-17T08:07:22;99424.91;;;11.21;100.00
53546;BME280;39432;51.902;10.844;2023-02-17T08:09:52;99419.94;;;11.18;100.00
53546;BME280;39432;51.902;10.844;2023-02-17T08:12:37;99412.31;;;11.25;100.00
53546;BME280;39432;51.902;10.844;2023-02-17T08:15:32;99412.56;;;11.19;100.00
53546;BME280;39432;51.902;10.844;2023-02-17T08:18:02;99421.59;;;11.19;100.00
53546;BME280;39432;51.902;10.844;2023-02-17T08:20:33;99423.25;;;11.25;100.00
53546;BME280;39432;51.902;10.844;2023-02-17T08:23:05;99419.19;;;11.28;100.00
53546;BME280;39432;51.902;10.844;2023-02-17T08:25:35;99401.34;;;11.25;100.00
53546;BME280;39432;51.902;10.844;2023-02-17T08:28:05;99405.75;;;11.31;100.00
53546;BME280;39432;51.902;10.844;2023-02-17T08:30:35;99390.47;;;11.41;100.00
53546;BME280;39432;51.902;10.844;2023-02-17T08:33:05;99387.78;;;11.56;100.00
53546;BME280;39432;51.902;10.844;2023-02-17T08:35:35;99386.16;;;11.60;100.00
53546;BME280;39432;51.902;10.844;2023-02-17T08:38:07;99387.78;;;11.56;100.00
53546;BME280;39432;51.902;10.844;2023-02-17T08:40:37;99394.34;;;11.50;100.00
53546;BME280;39432;51.902;10.844;2023-02-17T08:43:07;99384.75;;;11.57;100.00
53546;BME280;39432;51.902;10.844;2023-02-17T08:45:36;99387.25;;;11.69;100.00
53546;BME280;39432;51.902;10.844;2023-02-17T08:48:06;99368.06;;;11.64;100.00
53546;BME280;39432;51.902;10.844;2023-02-17T08:50:36;99392.50;;;11.76;100.00
53546;BME280;39432;51.902;10.844;2023-02-17T08:53:08;99387.84;;;11.76;100.00
53546;BME280;39432;51.902;10.844;2023-02-17T08:55:37;99376.91;;;11.92;100.00
53546;BME280;39432;51.902;10.844;2023-02-17T08:58:15;99362.94;;;11.88;100.00
53546;BME280;39432;51.902;10.844;2023-02-17T09:00:45;99369.19;;;11.78;100.00
53546;BME280;39432;51.902;10.844;2023-02-17T09:03:15;99374.75;;;11.94;100.00
53546;BME280;39432;51.902;10.844;2023-02-17T09:05:44;99375.25;;;11.91;100.00
53546;BME280;39432;51.902;10.844;2023-02-17T09:08:18;99361.28;;;12.07;100.00
53546;BME280;39432;51.902;10.844;2023-02-17T09:10:49;99376.09;;;12.06;100.00
53546;BME280;39432;51.902;10.844;2023-02-17T09:13:19;99351.72;;;12.20;100.00
53546;BME280;39432;51.902;10.844;2023-02-17T09:15:49;99354.47;;;12.15;100.00
53546;BME280;39432;51.902;10.844;2023-02-17T09:18:20;99333.88;;;12.23;100.00
53546;BME280;39432;51.902;10.844;2023-02-17T09:20:50;99342.09;;;12.38;100.00
53546;BME280;39432;51.902;10.844;2023-02-17T09:23:25;99355.00;;;12.37;100.00
53546;BME280;39432;51.902;10.844;2023-02-17T09:26:00;99334.69;;;12.44;100.00
53546;BME280;39432;51.902;10.844;2023-02-17T09:28:31;99332.47;;;12.40;100.00
53546;BME280;39432;51.902;10.844;2023-02-17T09:31:07;99330.81;;;12.60;100.00
53546;BME280;39432;51.902;10.844;2023-02-17T09:33:37;99309.38;;;12.67;100.00
53546;BME280;39432;51.902;10.844;2023-02-17T09:36:09;99296.22;;;12.69;100.00
53546;BME280;39432;51.902;10.844;2023-02-17T09:38:42;99311.00;;;12.78;100.00
53546;BME280;39432;51.902;10.844;2023-02-17T09:41:17;99313.22;;;12.76;100.00
53546;BME280;39432;51.902;10.844;2023-02-17T09:43:47;99311.59;;;12.65;100.00
53546;BME280;39432;51.902;10.844;2023-02-17T09:46:20;99314.09;;;12.51;100.00
53546;BME280;39432;51.902;10.844;2023-02-17T09:48:54;99293.22;;;12.50;100.00
53546;BME280;39432;51.902;10.844;2023-02-17T09:51:27;99286.91;;;12.60;100.00
53546;BME280;39432;51.902;10.844;2023-02-17T09:54:04;99300.59;;;12.70;100.00
53546;BME280;39432;51.902;10.844;2023-02-17T09:56:37;99278.63;;;12.75;100.00
53546;BME280;39432;51.902;10.844;2023-02-17T09:59:14;99305.50;;;12.78;100.00
53546;BME280;39432;51.902;10.844;2023-02-17T10:01:46;99285.78;;;12.71;100.00
53546;BME280;39432;51.902;10.844;2023-02-17T10:04:19;99305.53;;;12.63;100.00
53546;BME280;39432;51.902;10.844;2023-02-17T10:06:53;99288.47;;;12.81;100.00
53546;BME280;39432;51.902;10.844;2023-02-17T10:09:33;99297.75;;;12.90;100.00
53546;BME280;39432;51.902;10.844;2023-02-17T10:12:08;99304.94;;;12.91;100.00
53546;BME280;39432;51.902;10.844;2023-02-17T10:14:45;99310.63;;;13.00;100.00
53546;BME280;39432;51.902;10.844;2023-02-17T10:17:20;99307.66;;;12.97;100.00
53546;BME280;39432;51.902;10.844;2023-02-17T10:19:54;99315.25;;;13.15;100.00
53546;BME280;39432;51.902;10.844;2023-02-17T10:22:25;99307.88;;;13.05;100.00
53546;BME280;39432;51.902;10.844;2023-02-17T10:24:59;99318.81;;;13.15;100.00
53546;BME280;39432;51.902;10.844;2023-02-17T10:27:35;99307.53;;;13.27;100.00
53546;BME280;39432;51.902;10.844;2023-02-17T10:30:18;99295.19;;;13.19;100.00
53546;BME280;39432;51.902;10.844;2023-02-17T10:32:59;99304.25;;;13.20;100.00
53546;BME280;39432;51.902;10.844;2023-02-17T10:35:39;99287.34;;;13.52;100.00
53546;BME280;39432;51.902;10.844;2023-02-17T10:38:15;99273.28;;;13.54;100.00
53546;BME280;39432;51.902;10.844;2023-02-17T10:40:49;99264.88;;;13.35;100.00
53546;BME280;39432;51.902;10.844;2023-02-17T10:43:21;99260.78;;;13.32;100.00
53546;BME280;39432;51.902;10.844;2023-02-17T10:45:55;99263.69;;;13.51;100.00
53546;BME280;39432;51.902;10.844;2023-02-17T10:48:30;99261.81;;;13.47;100.00
53546;BME280;39432;51.902;10.844;2023-02-17T10:51:02;99258.56;;;13.34;100.00
53546;BME280;39432;51.902;10.844;2023-02-17T10:53:33;99258.78;;;13.48;100.00
53546;BME280;39432;51.902;10.844;2023-02-17T10:56:10;99250.06;;;13.36;100.00
53546;BME280;39432;51.902;10.844;2023-02-17T10:58:49;99239.44;;;13.24;100.00
53546;BME280;39432;51.902;10.844;2023-02-17T11:01:21;99225.72;;;13.14;100.00
53546;BME280;39432;51.902;10.844;2023-02-17T11:04:02;99215.53;;;13.25;100.00
53546;BME280;39432;51.902;10.844;2023-02-17T11:06:36;99197.66;;;13.17;100.00
53546;BME280;39432;51.902;10.844;2023-02-17T11:09:17;99177.91;;;13.15;100.00
53546;BME280;39432;51.902;10.844;2023-02-17T11:11:57;99185.97;;;13.40;100.00
53546;BME280;39432;51.902;10.844;2023-02-17T11:14:29;99167.13;;;13.63;100.00
53546;BME280;39432;51.902;10.844;2023-02-17T11:17:01;99144.63;;;13.56;100.00
53546;BME280;39432;51.902;10.844;2023-02-17T11:19:33;99134.63;;;13.70;100.00
53546;BME280;39432;51.902;10.844;2023-02-17T11:22:05;99130.31;;;13.88;100.00
53546;BME280;39432;51.902;10.844;2023-02-17T11:24:38;99136.16;;;13.81;100.00
53546;BME280;39432;51.902;10.844;2023-02-17T11:27:11;99135.09;;;13.77;100.00
53546;BME280;39432;51.902;10.844;2023-02-17T11:29:40;99137.66;;;13.68;100.00
53546;BME280;39432;51.902;10.844;2023-02-17T11:32:11;99137.41;;;13.65;100.00
53546;BME280;39432;51.902;10.844;2023-02-17T11:34:42;99137.09;;;13.66;100.00
53546;BME280;39432;51.902;10.844;2023-02-17T11:37:19;99138.63;;;13.54;100.00
53546;BME280;39432;51.902;10.844;2023-02-17T11:39:51;99132.00;;;13.55;100.00
53546;BME280;39432;51.902;10.844;2023-02-17T11:42:25;99134.63;;;13.70;100.00
53546;BME280;39432;51.902;10.844;2023-02-17T11:44:57;99142.38;;;13.63;100.00
53546;BME280;39432;51.902;10.844;2023-02-17T11:47:33;99131.97;;;13.60;100.00
53546;BME280;39432;51.902;10.844;2023-02-17T11:50:21;99129.59;;;13.77;100.00
53546;BME280;39432;51.902;10.844;2023-02-17T11:53:18;99114.00;;;13.67;100.00
53546;BME280;39432;51.902;10.844;2023-02-17T11:55:55;99102.19;;;13.67;100.00
53546;BME280;39432;51.902;10.844;2023-02-17T11:58:42;99101.53;;;13.80;100.00
53546;BME280;39432;51.902;10.844;2023-02-17T12:01:24;99098.34;;;13.68;100.00
53546;BME280;39432;51.902;10.844;2023-02-17T12:04:21;99086.19;;;13.74;100.00
53546;BME280;39432;51.902;10.844;2023-02-17T12:07:03;99109.72;;;13.85;100.00
53546;BME280;39432;51.902;10.844;2023-02-17T12:09:44;99102.75;;;13.69;100.00
53546;BME280;39432;51.902;10.844;2023-02-17T12:12:21;99105.44;;;13.74;100.00
53546;BME280;39432;51.902;10.844;2023-02-17T12:15:05;99094.56;;;13.88;100.00
53546;BME280;39432;51.902;10.844;2023-02-17T12:17:44;99097.66;;;13.81;100.00
53546;BME280;39432;51.902;10.844;2023-02-17T12:20:32;99091.81;;;13.88;100.00
53546;BME280;39432;51.902;10.844;2023-02-17T12:23:17;99081.00;;;13.96;100.00
53546;BME280;39432;51.902;10.844;2023-02-17T12:25:55;99068.19;;;14.06;100.00
53546;BME280;39432;51.902;10.844;2023-02-17T12:28:38;99059.25;;;14.19;100.00
53546;BME280;39432;51.902;10.844;2023-02-17T12:31:20;99038.00;;;14.43;100.00
53546;BME280;39432;51.902;10.844;2023-02-17T12:33:58;99046.25;;;14.43;100.00
53546;BME280;39432;51.902;10.844;2023-02-17T12:36:31;99017.06;;;14.47;100.00
53546;BME280;39432;51.902;10.844;2023-02-17T12:39:10;99049.31;;;14.61;100.00
53546;BME280;39432;51.902;10.844;2023-02-17T12:41:44;99025.47;;;14.56;100.00
53546;BME280;39432;51.902;10.844;2023-02-17T12:44:18;99023.53;;;14.57;100.00
53546;BME280;39432;51.902;10.844;2023-02-17T12:46:54;99019.84;;;14.42;100.00
53546;BME280;39432;51.902;10.844;2023-02-17T12:49:30;99031.59;;;14.29;100.00
53546;BME280;39432;51.902;10.844;2023-02-17T12:52:07;99017.44;;;14.17;100.00
53546;BME280;39432;51.902;10.844;2023-02-17T12:54:42;99029.19;;;14.04;100.00
53546;BME280;39432;51.902;10.844;2023-02-17T12:57:14;99008.59;;;14.01;100.00
53546;BME280;39432;51.902;10.844;2023-02-17T12:59:47;99037.94;;;14.06;100.00
53546;BME280;39432;51.902;10.844;2023-02-17T13:02:22;99015.94;;;14.06;100.00
53546;BME280;39432;51.902;10.844;2023-02-17T13:04:53;99032.09;;;14.12;100.00
53546;BME280;39432;51.902;10.844;2023-02-17T13:07:39;99030.75;;;14.10;100.00
53546;BME280;39432;51.902;10.844;2023-02-17T13:10:26;99036.19;;;14.15;100.00
53546;BME280;39432;51.902;10.844;2023-02-17T13:13:00;99030.22;;;14.08;100.00
53546;BME280;39432;51.902;10.844;2023-02-17T13:15:34;99040.00;;;14.19;100.00